createdAt,value
2018-06-21T00:02:10.077Z,22.10
2018-06-21T00:04:38.683Z,22.10
2018-06-21T00:07:07.269Z,22.10
2018-06-21T00:09:35.946Z,22.40
2018-06-21T00:12:04.365Z,22.60
2018-06-21T00:14:33.002Z,22.60
2018-06-21T00:17:01.425Z,22.60
2018-06-21T00:21:58.116Z,22.10
2018-06-21T00:24:26.593Z,21.90
2018-06-21T00:26:55.094Z,21.70
2018-06-21T00:29:23.821Z,21.60
2018-06-21T00:31:52.464Z,21.60
2018-06-21T00:34:20.980Z,21.50
2018-06-21T00:36:49.429Z,21.50
2018-06-21T00:39:18.081Z,21.50
2018-06-21T00:41:46.788Z,21.40
2018-06-21T00:44:15.427Z,21.50
2018-06-21T00:46:43.869Z,21.50
2018-06-21T00:49:12.307Z,21.40
2018-06-21T00:51:40.899Z,21.30
2018-06-21T00:54:09.316Z,21.30
2018-06-21T00:56:38.112Z,21.30
2018-06-21T01:01:34.911Z,21.30
2018-06-21T01:04:03.348Z,21.30
2018-06-21T01:06:31.800Z,21.50
2018-06-21T01:09:00.340Z,21.30
2018-06-21T01:11:28.805Z,21.30
2018-06-21T01:13:57.253Z,21.50
2018-06-21T01:16:25.797Z,21.50
2018-06-21T01:18:54.566Z,21.60
2018-06-21T01:21:22.991Z,21.30
2018-06-21T01:23:51.473Z,21.10
2018-06-21T01:26:20.008Z,21.00
2018-06-21T01:28:48.472Z,20.90
2018-06-21T01:31:16.960Z,20.90
2018-06-21T01:33:45.480Z,20.90
2018-06-21T01:36:14.235Z,20.90
2018-06-21T01:38:42.672Z,20.80
2018-06-21T01:41:11.129Z,20.90
2018-06-21T01:43:39.582Z,20.80
2018-06-21T01:46:08.024Z,20.90
2018-06-21T01:48:36.566Z,20.90
2018-06-21T01:51:05.120Z,20.90
2018-06-21T01:53:33.725Z,20.90
2018-06-21T01:56:02.294Z,21.00
2018-06-21T01:58:30.728Z,21.00
2018-06-21T02:00:59.221Z,21.00
2018-06-21T02:03:27.641Z,20.90
2018-06-21T02:05:56.165Z,20.80
2018-06-21T02:08:24.759Z,20.80
2018-06-21T02:10:53.321Z,21.00
2018-06-21T02:13:21.854Z,21.10
2018-06-21T02:15:50.256Z,20.90
2018-06-21T02:18:18.871Z,20.80
2018-06-21T02:20:47.299Z,20.70
2018-06-21T02:23:15.933Z,20.70
2018-06-21T02:25:44.381Z,20.70
2018-06-21T02:28:12.833Z,20.70
2018-06-21T02:30:41.262Z,20.60
2018-06-21T02:33:09.685Z,20.70
2018-06-21T02:35:38.129Z,20.70
2018-06-21T02:38:06.552Z,20.60
2018-06-21T02:40:35.000Z,20.40
2018-06-21T02:43:03.445Z,20.40
2018-06-21T02:45:32.056Z,20.40
2018-06-21T02:48:00.645Z,20.50
2018-06-21T02:50:29.089Z,20.50
2018-06-21T02:52:57.538Z,20.50
2018-06-21T02:55:25.954Z,20.50
2018-06-21T02:57:54.508Z,20.80
2018-06-21T03:00:23.023Z,20.80
2018-06-21T03:02:51.548Z,20.80
2018-06-21T03:05:19.988Z,20.60
2018-06-21T03:10:16.727Z,20.20
2018-06-21T03:12:45.452Z,20.20
2018-06-21T03:15:13.876Z,20.20
2018-06-21T03:17:42.485Z,20.50
2018-06-21T03:20:10.940Z,20.50
2018-06-21T03:22:39.530Z,20.50
2018-06-21T03:25:08.143Z,20.30
2018-06-21T03:27:36.564Z,20.10
2018-06-21T03:30:05.019Z,20.10
2018-06-21T03:32:33.432Z,20.00
2018-06-21T03:35:02.114Z,20.00
2018-06-21T03:37:30.540Z,20.00
2018-06-21T03:39:58.984Z,19.80
2018-06-21T03:42:27.412Z,20.00
2018-06-21T03:44:55.898Z,20.20
2018-06-21T03:47:24.432Z,20.30
2018-06-21T03:49:53.072Z,20.50
2018-06-21T03:52:21.664Z,20.60
2018-06-21T03:54:50.183Z,20.50
2018-06-21T03:57:18.910Z,20.40
2018-06-21T03:59:47.362Z,20.10
2018-06-21T04:02:15.820Z,20.00
2018-06-21T04:04:44.231Z,19.90
2018-06-21T04:07:12.794Z,19.80
2018-06-21T04:09:41.246Z,19.80
2018-06-21T04:12:10.100Z,19.80
2018-06-21T04:14:38.536Z,19.90
2018-06-21T04:19:35.077Z,20.00
2018-06-21T04:22:03.492Z,20.20
2018-06-21T04:24:32.004Z,20.30
2018-06-21T04:27:00.441Z,20.30
2018-06-21T04:29:28.996Z,20.10
2018-06-21T04:31:57.452Z,20.00
2018-06-21T04:34:26.082Z,20.00
2018-06-21T04:36:54.549Z,20.00
2018-06-21T04:39:23.116Z,19.90
2018-06-21T04:41:51.788Z,20.10
2018-06-21T04:44:20.363Z,20.40
2018-06-21T04:46:48.976Z,20.50
2018-06-21T04:49:17.458Z,20.40
2018-06-21T04:51:45.928Z,20.30
2018-06-21T04:54:14.595Z,20.20
2018-06-21T04:56:43.077Z,20.20
2018-06-21T04:59:11.501Z,20.20
2018-06-21T05:01:39.953Z,20.30
2018-06-21T05:04:08.396Z,20.50
2018-06-21T05:06:36.879Z,20.50
2018-06-21T05:09:09.122Z,20.60
2018-06-21T05:11:37.592Z,20.60
2018-06-21T05:14:06.240Z,20.60
2018-06-21T05:19:03.309Z,20.80
2018-06-21T05:21:31.908Z,20.70
2018-06-21T05:24:00.352Z,20.70
2018-06-21T05:26:28.876Z,20.80
2018-06-21T05:28:57.400Z,20.80
2018-06-21T05:31:25.851Z,21.00
2018-06-21T05:33:54.541Z,21.10
2018-06-21T05:36:22.997Z,21.10
2018-06-21T05:38:51.704Z,21.20
2018-06-21T05:41:20.162Z,21.30
2018-06-21T05:43:48.864Z,21.30
2018-06-21T05:46:17.368Z,21.50
2018-06-21T05:48:45.920Z,21.60
2018-06-21T05:51:14.429Z,21.50
2018-06-21T05:53:42.858Z,21.60
2018-06-21T05:56:11.315Z,21.50
2018-06-21T05:58:39.812Z,21.60
2018-06-21T06:01:08.420Z,21.60
2018-06-21T06:03:37.417Z,21.60
2018-06-21T06:06:05.940Z,21.60
2018-06-21T06:08:34.538Z,21.80
2018-06-21T06:11:05.495Z,21.90
2018-06-21T06:13:33.952Z,22.10
2018-06-21T06:16:02.425Z,22.30
2018-06-21T06:18:30.949Z,22.30
2018-06-21T06:20:59.668Z,22.40
2018-06-21T06:23:28.090Z,22.60
2018-06-21T06:25:56.765Z,22.60
2018-06-21T06:28:25.240Z,22.70
2018-06-21T06:33:21.876Z,22.70
2018-06-21T06:35:50.566Z,22.80
2018-06-21T06:38:19.311Z,22.90
2018-06-21T06:40:47.768Z,23.10
2018-06-21T06:43:16.193Z,23.20
2018-06-21T06:45:44.657Z,23.40
2018-06-21T06:48:13.088Z,23.60
2018-06-21T06:50:41.550Z,23.80
2018-06-21T06:53:10.024Z,23.90
2018-06-21T06:55:38.568Z,24.10
2018-06-21T06:58:07.501Z,24.20
2018-06-21T07:00:36.011Z,24.00
2018-06-21T07:03:04.773Z,24.10
2018-06-21T07:05:33.201Z,24.20
2018-06-21T07:08:01.650Z,24.30
2018-06-21T07:10:30.121Z,24.50
2018-06-21T07:12:58.547Z,24.60
2018-06-21T07:15:26.980Z,24.90
2018-06-21T07:17:55.652Z,25.30
2018-06-21T07:20:24.117Z,25.20
2018-06-21T07:22:52.561Z,25.50
2018-06-21T07:25:21.073Z,26.30
2018-06-21T07:27:49.588Z,26.20
2018-06-21T07:30:18.156Z,27.30
2018-06-21T07:35:14.797Z,27.90
2018-06-21T07:37:43.277Z,28.10
2018-06-21T07:40:11.766Z,28.00
2018-06-21T07:42:40.288Z,28.70
2018-06-21T07:45:08.933Z,27.80
2018-06-21T07:47:37.384Z,27.40
2018-06-21T07:50:06.010Z,27.40
2018-06-21T07:52:34.540Z,28.20
2018-06-21T07:55:03.146Z,28.60
2018-06-21T07:57:31.589Z,29.50
2018-06-21T08:00:00.044Z,28.60
2018-06-21T08:02:28.508Z,29.00
2018-06-21T08:04:57.023Z,29.10
2018-06-21T08:07:25.484Z,29.40
2018-06-21T08:09:53.901Z,30.10
2018-06-21T08:12:22.527Z,30.20
2018-06-21T08:14:51.032Z,29.90
2018-06-21T08:17:19.761Z,31.30
2018-06-21T08:19:48.180Z,31.40
2018-06-21T08:22:16.793Z,31.10
2018-06-21T08:24:45.368Z,31.00
2018-06-21T08:27:13.874Z,31.40
2018-06-21T08:29:42.415Z,31.20
2018-06-21T08:32:11.081Z,30.00
2018-06-21T08:34:39.572Z,27.20
2018-06-21T08:37:08.061Z,26.00
2018-06-21T08:39:36.740Z,25.70
2018-06-21T08:42:05.180Z,26.80
2018-06-21T08:44:33.624Z,26.60
2018-06-21T08:47:02.100Z,26.20
2018-06-21T08:49:30.560Z,25.90
2018-06-21T08:51:59.021Z,26.10
2018-06-21T08:54:27.424Z,26.50
2018-06-21T08:56:56.212Z,28.00
2018-06-21T08:59:24.670Z,28.40
2018-06-21T09:01:53.184Z,28.90
2018-06-21T09:04:21.797Z,29.20
2018-06-21T09:06:50.224Z,29.40
2018-06-21T09:09:18.931Z,29.50
2018-06-21T09:11:47.484Z,29.80
2018-06-21T09:14:16.072Z,29.10
2018-06-21T09:16:44.586Z,27.70
2018-06-21T09:19:13.002Z,27.10
2018-06-21T09:21:41.478Z,27.30
2018-06-21T09:24:09.918Z,28.00
2018-06-21T09:26:38.521Z,28.90
2018-06-21T09:29:07.034Z,28.80
2018-06-21T09:31:35.700Z,27.60
2018-06-21T09:34:04.232Z,27.40
2018-06-21T09:36:39.569Z,28.60
2018-06-21T09:39:14.944Z,28.80
2018-06-21T09:41:49.160Z,29.70
2018-06-21T09:44:22.995Z,29.40
2018-06-21T09:46:56.785Z,28.60
2018-06-21T09:49:29.279Z,28.20
2018-06-21T09:51:58.988Z,27.00
2018-06-21T09:54:27.567Z,27.60
2018-06-21T09:56:56.324Z,28.60
2018-06-21T09:59:24.754Z,30.00
2018-06-21T10:01:53.219Z,28.90
2018-06-21T10:04:21.752Z,29.20
2018-06-21T10:06:50.229Z,28.00
2018-06-21T10:09:19.161Z,27.70
2018-06-21T10:11:47.950Z,27.50
2018-06-21T10:16:44.850Z,28.60
2018-06-21T10:19:13.476Z,27.40
2018-06-21T10:21:41.928Z,27.10
2018-06-21T10:24:10.355Z,28.30
2018-06-21T10:26:38.972Z,29.00
2018-06-21T10:29:07.528Z,29.80
2018-06-21T10:31:36.368Z,28.30
2018-06-21T10:34:04.820Z,28.70
2018-06-21T10:36:33.349Z,28.50
2018-06-21T10:39:01.801Z,29.00
2018-06-21T10:41:30.301Z,29.50
2018-06-21T10:43:58.944Z,29.50
2018-06-21T10:46:27.661Z,28.20
2018-06-21T10:48:56.134Z,27.40
2018-06-21T10:51:24.628Z,28.30
2018-06-21T10:53:53.244Z,27.20
2018-06-21T10:56:22.213Z,27.70
2018-06-21T10:58:50.648Z,28.90
2018-06-21T11:01:19.465Z,28.50
2018-06-21T11:03:47.911Z,29.20
2018-06-21T11:06:16.461Z,29.70
2018-06-21T11:08:44.949Z,29.50
2018-06-21T11:11:13.300Z,27.20
2018-06-21T11:16:10.143Z,28.30
2018-06-21T11:18:38.689Z,28.10
2018-06-21T11:21:07.330Z,28.60
2018-06-21T11:23:35.764Z,28.80
2018-06-21T11:26:04.259Z,29.30
2018-06-21T11:28:32.760Z,28.80
2018-06-21T11:31:01.217Z,28.10
2018-06-21T11:33:29.679Z,27.30
2018-06-21T11:35:58.120Z,27.20
2018-06-21T11:38:26.545Z,27.40
2018-06-21T11:40:54.998Z,28.00
2018-06-21T11:43:23.556Z,27.90
2018-06-21T11:45:52.213Z,28.20
2018-06-21T11:48:20.666Z,28.00
2018-06-21T11:50:49.109Z,27.30
2018-06-21T11:53:17.543Z,26.50
2018-06-21T11:55:46.269Z,26.80
2018-06-21T11:58:14.721Z,27.50
2018-06-21T12:00:43.241Z,27.70
2018-06-21T12:03:11.670Z,27.80
2018-06-21T12:05:40.085Z,27.90
2018-06-21T12:08:08.676Z,27.40
2018-06-21T12:10:37.084Z,26.70
2018-06-21T12:13:05.549Z,26.90
2018-06-21T12:15:33.965Z,26.60
2018-06-21T12:18:02.427Z,26.70
2018-06-21T12:20:30.985Z,26.90
2018-06-21T12:22:59.476Z,27.30
2018-06-21T12:25:27.959Z,27.60
2018-06-21T12:27:56.392Z,27.80
2018-06-21T12:30:24.913Z,28.30
2018-06-21T12:32:53.335Z,27.10
2018-06-21T12:35:21.876Z,26.50
2018-06-21T12:37:50.356Z,27.20
2018-06-21T12:40:18.824Z,27.20
2018-06-21T12:42:47.241Z,27.80
2018-06-21T12:45:15.712Z,28.30
2018-06-21T12:47:44.352Z,27.60
2018-06-21T12:50:13.010Z,28.00
2018-06-21T12:55:09.737Z,28.80
2018-06-21T12:57:38.407Z,28.40
2018-06-21T13:00:07.100Z,28.30
2018-06-21T13:02:35.729Z,27.90
2018-06-21T13:05:04.255Z,26.90
2018-06-21T13:07:32.707Z,26.60
2018-06-21T13:10:12.502Z,26.60
2018-06-21T13:12:52.883Z,26.40
2018-06-21T13:15:21.476Z,26.30
2018-06-21T13:17:50.034Z,26.20
2018-06-21T13:20:18.441Z,26.10
2018-06-21T13:22:46.917Z,26.10
2018-06-21T13:25:15.497Z,26.40
2018-06-21T13:27:43.961Z,26.80
2018-06-21T13:30:12.428Z,26.40
2018-06-21T13:32:40.936Z,26.10
2018-06-21T13:35:09.387Z,26.20
2018-06-21T13:37:37.882Z,26.80
2018-06-21T13:40:06.369Z,26.80
2018-06-21T13:42:34.805Z,27.50
2018-06-21T13:45:03.532Z,27.70
2018-06-21T13:47:32.085Z,27.60
2018-06-21T13:50:00.712Z,26.60
2018-06-21T13:52:29.312Z,27.30
2018-06-21T13:54:57.868Z,26.90
2018-06-21T13:57:26.376Z,27.00
2018-06-21T13:59:55.564Z,27.20
2018-06-21T14:02:24.188Z,26.70
2018-06-21T14:04:52.726Z,26.40
2018-06-21T14:07:21.396Z,26.10
2018-06-21T14:09:49.843Z,26.10
2018-06-21T14:12:18.496Z,26.00
2018-06-21T14:14:47.047Z,26.10
2018-06-21T14:17:15.941Z,25.80
2018-06-21T14:19:44.772Z,25.70
2018-06-21T14:22:13.381Z,24.50
2018-06-21T14:24:41.828Z,24.30
2018-06-21T14:27:10.356Z,24.40
2018-06-21T14:29:38.812Z,24.50
2018-06-21T14:32:07.281Z,24.10
2018-06-21T14:34:35.949Z,23.80
2018-06-21T14:37:04.409Z,23.70
2018-06-21T14:39:33.157Z,23.50
2018-06-21T14:42:01.574Z,23.50
2018-06-21T14:44:30.229Z,23.40
2018-06-21T14:46:58.752Z,23.30
2018-06-21T14:49:27.384Z,23.30
2018-06-21T14:51:55.973Z,23.30
2018-06-21T14:54:24.444Z,23.20
2018-06-21T14:56:53.040Z,23.30
2018-06-21T14:59:21.556Z,23.10
2018-06-21T15:01:50.288Z,22.90
2018-06-21T15:04:18.745Z,23.00
2018-06-21T15:06:47.334Z,23.10
2018-06-21T15:09:15.767Z,23.00
2018-06-21T15:11:44.520Z,22.80
2018-06-21T15:14:13.350Z,22.90
2018-06-21T15:16:41.867Z,22.90
2018-06-21T15:19:10.274Z,22.90
2018-06-21T15:21:39.287Z,23.10
2018-06-21T15:24:07.767Z,22.90
2018-06-21T15:26:36.488Z,23.10
2018-06-21T15:29:04.971Z,23.40
2018-06-21T15:31:33.461Z,23.70
2018-06-21T15:34:02.172Z,23.50
2018-06-21T15:36:30.818Z,23.60
2018-06-21T15:39:00.320Z,23.90
2018-06-21T15:41:30.105Z,23.40
2018-06-21T15:43:58.533Z,23.80
2018-06-21T15:46:27.143Z,23.80
2018-06-21T15:48:55.564Z,23.70
2018-06-21T15:51:24.053Z,24.00
2018-06-21T15:53:52.539Z,23.90
2018-06-21T15:56:21.052Z,23.80
2018-06-21T15:58:49.557Z,23.80
2018-06-21T16:01:18.099Z,23.20
2018-06-21T16:03:46.521Z,22.80
2018-06-21T16:06:14.965Z,22.70
2018-06-21T16:08:43.463Z,22.80
2018-06-21T16:11:11.976Z,23.00
2018-06-21T16:13:40.597Z,23.00
2018-06-21T16:16:09.122Z,23.40
2018-06-21T16:18:37.644Z,23.50
2018-06-21T16:21:06.361Z,23.20
2018-06-21T16:23:34.875Z,23.10
2018-06-21T16:26:03.561Z,22.70
2018-06-21T16:28:32.046Z,22.70
2018-06-21T16:31:00.496Z,23.00
2018-06-21T16:33:29.199Z,23.10
2018-06-21T16:35:57.602Z,22.90
2018-06-21T16:38:26.160Z,22.90
2018-06-21T16:40:54.837Z,22.80
2018-06-21T16:43:23.366Z,22.50
2018-06-21T16:45:51.982Z,22.60
2018-06-21T16:48:20.435Z,22.50
2018-06-21T16:50:49.090Z,22.20
2018-06-21T16:53:17.646Z,22.10
2018-06-21T16:55:46.301Z,22.00
2018-06-21T16:58:15.806Z,22.00
2018-06-21T17:00:44.403Z,22.10
2018-06-21T17:03:13.429Z,22.10
2018-06-21T17:05:42.070Z,22.10
2018-06-21T17:08:10.612Z,22.10
2018-06-21T17:10:39.185Z,22.20
2018-06-21T17:13:07.876Z,22.20
2018-06-21T17:15:36.357Z,21.90
2018-06-21T17:18:04.910Z,21.90
2018-06-21T17:20:33.385Z,21.90
2018-06-21T17:23:01.849Z,21.80
2018-06-21T17:25:30.329Z,21.70
2018-06-21T17:27:58.797Z,21.80
2018-06-21T17:30:27.765Z,21.60
2018-06-21T17:32:56.096Z,21.50
2018-06-21T17:35:24.636Z,21.50
2018-06-21T17:40:21.300Z,21.70
2018-06-21T17:42:49.973Z,21.60
2018-06-21T17:45:18.492Z,21.40
2018-06-21T17:47:47.250Z,21.30
2018-06-21T17:50:15.770Z,21.30
2018-06-21T17:52:44.181Z,21.30
2018-06-21T17:55:12.848Z,21.50
2018-06-21T17:57:41.419Z,21.60
2018-06-21T18:00:09.947Z,21.50
2018-06-21T18:02:38.702Z,21.30
2018-06-21T18:05:07.264Z,21.20
2018-06-21T18:07:35.952Z,21.10
2018-06-21T18:10:14.381Z,21.10
2018-06-21T18:12:42.799Z,21.10
2018-06-21T18:15:11.479Z,20.90
2018-06-21T18:17:40.119Z,20.90
2018-06-21T18:20:08.693Z,20.80
2018-06-21T18:22:37.490Z,20.60
2018-06-21T18:25:06.378Z,20.50
2018-06-21T18:27:34.889Z,20.40
2018-06-21T18:30:03.500Z,20.20
2018-06-21T18:32:32.043Z,20.00
2018-06-21T18:35:00.644Z,20.00
2018-06-21T18:37:29.158Z,20.00
2018-06-21T18:39:57.808Z,20.10
2018-06-21T18:42:26.276Z,19.90
2018-06-21T18:44:54.912Z,19.80
2018-06-21T18:47:23.392Z,19.70
2018-06-21T18:49:51.861Z,19.70
2018-06-21T18:52:20.525Z,19.60
2018-06-21T18:54:49.126Z,19.60
2018-06-21T18:57:17.732Z,19.60
2018-06-21T18:59:46.190Z,19.60
2018-06-21T19:02:14.825Z,19.60
2018-06-21T19:04:43.249Z,19.60
2018-06-21T19:07:17.095Z,19.50
2018-06-21T19:09:51.056Z,19.50
2018-06-21T19:12:19.496Z,19.50
2018-06-21T19:14:47.973Z,19.50
2018-06-21T19:17:16.425Z,19.40
2018-06-21T19:19:45.046Z,19.40
2018-06-21T19:22:13.649Z,19.30
2018-06-21T19:27:10.327Z,19.30
2018-06-21T19:29:38.883Z,19.20
2018-06-21T19:34:36.011Z,19.20
2018-06-21T19:37:04.835Z,19.10
2018-06-21T19:39:33.413Z,19.10
2018-06-21T19:42:02.456Z,19.10
2018-06-21T19:44:30.917Z,19.10
2018-06-21T19:46:59.730Z,19.10
2018-06-21T19:49:28.244Z,19.10
2018-06-21T19:51:57.039Z,18.90
2018-06-21T19:54:25.859Z,18.90
2018-06-21T19:56:54.316Z,18.70
2018-06-21T19:59:23.379Z,18.70
2018-06-21T20:01:52.252Z,18.70
2018-06-21T20:04:20.687Z,18.60
2018-06-21T20:06:49.255Z,18.50
2018-06-21T20:09:17.897Z,18.50
2018-06-21T20:11:46.547Z,18.40
2018-06-21T20:14:15.015Z,18.40
2018-06-21T20:16:43.456Z,18.30
2018-06-21T20:19:14.222Z,18.30
2018-06-21T20:21:42.862Z,18.20
2018-06-21T20:24:11.605Z,18.20
2018-06-21T20:26:40.160Z,18.10
2018-06-21T20:29:14.260Z,18.00
2018-06-21T20:31:43.016Z,18.00
2018-06-21T20:34:11.680Z,17.90
2018-06-21T20:36:40.148Z,17.80
2018-06-21T20:39:09.986Z,17.70
2018-06-21T20:41:38.595Z,17.80
2018-06-21T20:44:07.147Z,17.70
2018-06-21T20:46:35.856Z,17.60
2018-06-21T20:49:04.424Z,17.50
2018-06-21T20:51:32.876Z,17.40
2018-06-21T20:54:01.460Z,17.40
2018-06-21T20:56:30.149Z,17.20
2018-06-21T20:58:58.720Z,17.10
2018-06-21T21:01:27.264Z,17.10
2018-06-21T21:03:55.820Z,17.00
2018-06-21T21:06:24.396Z,16.80
2018-06-21T21:08:52.976Z,16.80
2018-06-21T21:11:21.555Z,16.80
2018-06-21T21:13:50.009Z,16.80
2018-06-21T21:16:18.568Z,16.80
2018-06-21T21:18:47.121Z,16.60
2018-06-21T21:21:15.764Z,16.50
2018-06-21T21:23:44.211Z,16.50
2018-06-21T21:26:12.664Z,16.40
2018-06-21T21:28:41.102Z,16.30
2018-06-21T21:31:09.559Z,16.20
2018-06-21T21:33:38.029Z,16.30
2018-06-21T21:36:06.569Z,16.30
2018-06-21T21:38:35.065Z,16.10
2018-06-21T21:41:03.680Z,16.10
2018-06-21T21:43:32.120Z,16.10
2018-06-21T21:46:00.693Z,16.00
2018-06-21T21:48:29.415Z,16.00
2018-06-21T21:50:57.831Z,15.80
2018-06-21T21:53:26.345Z,15.70
2018-06-21T21:55:54.760Z,15.70
2018-06-21T21:58:23.357Z,15.70
2018-06-21T22:00:53.327Z,15.60
2018-06-21T22:03:21.886Z,15.60
2018-06-21T22:05:50.442Z,15.40
2018-06-21T22:08:18.933Z,15.40
2018-06-21T22:10:47.989Z,15.50
2018-06-21T22:13:16.748Z,15.40
2018-06-21T22:15:45.658Z,15.30
2018-06-21T22:20:42.368Z,15.20
2018-06-21T22:23:10.769Z,15.20
2018-06-21T22:25:39.244Z,15.10
2018-06-21T22:28:07.700Z,15.00
2018-06-21T22:30:36.123Z,15.00
2018-06-21T22:33:04.584Z,15.00
2018-06-21T22:35:32.992Z,15.00
2018-06-21T22:38:01.446Z,14.90
2018-06-21T22:40:29.855Z,14.90
2018-06-21T22:42:58.284Z,14.80
2018-06-21T22:45:26.697Z,14.70
2018-06-21T22:47:55.234Z,14.60
2018-06-21T22:50:23.648Z,14.60
2018-06-21T22:52:52.109Z,14.50
2018-06-21T22:55:20.668Z,14.50
2018-06-21T22:57:49.307Z,14.40
2018-06-21T23:00:17.740Z,14.40
2018-06-21T23:02:46.497Z,14.40
2018-06-21T23:05:15.467Z,14.30
2018-06-21T23:07:43.889Z,14.30
2018-06-21T23:10:12.348Z,14.30
2018-06-21T23:12:40.842Z,14.30
2018-06-21T23:15:09.352Z,14.20
2018-06-21T23:17:37.764Z,14.20
2018-06-21T23:20:06.440Z,14.20
2018-06-21T23:22:34.882Z,14.10
2018-06-21T23:25:03.492Z,14.10
2018-06-21T23:27:31.929Z,14.10
2018-06-21T23:30:00.522Z,14.00
2018-06-21T23:32:29.065Z,14.00
2018-06-21T23:34:57.589Z,14.00
2018-06-21T23:37:26.053Z,14.00
2018-06-21T23:39:54.465Z,13.80
2018-06-21T23:42:23.225Z,13.80
2018-06-21T23:44:51.635Z,13.90
2018-06-21T23:49:48.198Z,13.70
2018-06-21T23:52:16.620Z,13.70
2018-06-21T23:54:45.177Z,13.60
2018-06-21T23:57:13.768Z,13.60
2018-06-21T23:59:42.228Z,13.50
